createdAt,value
2022-10-28T00:00:35.968Z,18.43
2022-10-28T00:03:03.100Z,18.46
2022-10-28T00:05:34.182Z,18.46
2022-10-28T00:08:00.847Z,18.50
2022-10-28T00:10:28.718Z,18.53
2022-10-28T00:12:55.201Z,18.53
2022-10-28T00:15:21.913Z,18.63
2022-10-28T00:17:48.535Z,18.61
2022-10-28T00:20:15.851Z,18.63
2022-10-28T00:22:42.735Z,18.67
2022-10-28T00:25:09.405Z,18.68
2022-10-28T00:27:39.088Z,18.67
2022-10-28T00:30:07.570Z,18.73
2022-10-28T00:32:33.950Z,18.66
2022-10-28T00:35:00.357Z,18.77
2022-10-28T00:37:26.808Z,18.78
2022-10-28T00:39:53.294Z,18.78
2022-10-28T00:42:22.261Z,18.81
2022-10-28T00:44:56.523Z,18.83
2022-10-28T00:47:36.624Z,18.83
2022-10-28T00:50:19.678Z,18.80
2022-10-28T00:52:52.036Z,18.84
2022-10-28T00:55:20.090Z,18.80
2022-10-28T00:57:47.521Z,18.78
2022-10-28T01:00:14.784Z,18.83
2022-10-28T01:02:47.994Z,18.84
2022-10-28T01:05:19.036Z,18.80
2022-10-28T01:07:46.823Z,18.91
2022-10-28T01:10:14.586Z,18.91
2022-10-28T01:12:59.610Z,18.87
2022-10-28T01:15:52.457Z,18.88
2022-10-28T01:18:41.602Z,18.88
2022-10-28T01:21:37.121Z,18.87
2022-10-28T01:24:10.810Z,18.84
2022-10-28T01:27:10.630Z,18.84
2022-10-28T01:29:59.337Z,18.84
2022-10-28T01:32:37.874Z,18.85
2022-10-28T01:35:27.746Z,18.84
2022-10-28T01:38:34.236Z,18.80
2022-10-28T01:41:19.102Z,18.71
2022-10-28T01:43:57.338Z,18.66
2022-10-28T01:46:34.797Z,18.63
2022-10-28T01:49:23.523Z,18.63
2022-10-28T01:52:01.854Z,18.60
2022-10-28T01:54:31.586Z,18.58
2022-10-28T01:57:00.376Z,18.61
2022-10-28T01:59:28.893Z,18.58
2022-10-28T02:01:55.979Z,18.60
2022-10-28T02:04:23.037Z,18.60
2022-10-28T02:06:55.727Z,18.73
2022-10-28T02:09:36.545Z,18.80
2022-10-28T02:12:27.923Z,18.64
2022-10-28T02:15:16.467Z,18.58
2022-10-28T02:18:04.382Z,18.53
2022-10-28T02:21:10.255Z,18.61
2022-10-28T02:23:45.781Z,18.60
2022-10-28T02:26:27.250Z,18.63
2022-10-28T02:29:14.518Z,18.54
2022-10-28T02:31:48.930Z,18.53
2022-10-28T02:34:25.653Z,18.47
2022-10-28T02:36:56.070Z,18.40
2022-10-28T02:39:32.767Z,18.44
2022-10-28T02:42:22.204Z,18.47
2022-10-28T02:44:56.148Z,18.44
2022-10-28T02:47:28.795Z,18.47
2022-10-28T02:50:04.032Z,18.51
2022-10-28T02:52:32.742Z,18.48
2022-10-28T02:55:04.497Z,18.43
2022-10-28T02:57:48.409Z,18.44
2022-10-28T03:00:19.275Z,18.33
2022-10-28T03:02:46.461Z,18.30
2022-10-28T03:05:14.334Z,18.23
2022-10-28T03:07:40.915Z,18.22
2022-10-28T03:10:07.987Z,18.16
2022-10-28T03:12:34.405Z,18.13
2022-10-28T03:15:03.696Z,18.17
2022-10-28T03:17:30.235Z,18.16
2022-10-28T03:19:56.594Z,18.16
2022-10-28T03:22:23.054Z,18.01
2022-10-28T03:24:49.464Z,17.91
2022-10-28T03:27:15.941Z,17.69
2022-10-28T03:29:45.689Z,17.41
2022-10-28T03:32:12.927Z,17.44
2022-10-28T03:34:39.476Z,17.71
2022-10-28T03:37:05.837Z,17.99
2022-10-28T03:39:32.368Z,17.91
2022-10-28T03:41:58.830Z,17.89
2022-10-28T03:44:25.238Z,17.86
2022-10-28T03:46:51.621Z,17.79
2022-10-28T03:49:18.981Z,17.77
2022-10-28T03:51:45.405Z,17.61
2022-10-28T03:54:11.746Z,17.65
2022-10-28T03:56:40.558Z,17.74
2022-10-28T03:59:09.765Z,17.81
2022-10-28T04:01:36.402Z,17.74
2022-10-28T04:04:03.097Z,17.64
2022-10-28T04:06:29.595Z,17.65
2022-10-28T04:08:56.266Z,17.69
2022-10-28T04:11:22.668Z,17.77
2022-10-28T04:13:49.205Z,17.72
2022-10-28T04:16:15.726Z,17.72
2022-10-28T04:18:42.140Z,17.85
2022-10-28T04:21:08.591Z,17.86
2022-10-28T04:23:35.482Z,17.89
2022-10-28T04:26:02.210Z,17.89
2022-10-28T04:28:28.635Z,17.92
2022-10-28T04:30:55.075Z,17.92
2022-10-28T04:33:21.670Z,17.89
2022-10-28T04:35:48.141Z,17.89
2022-10-28T04:38:19.844Z,17.89
2022-10-28T04:40:50.199Z,17.89
2022-10-28T04:43:16.881Z,17.91
2022-10-28T04:45:48.831Z,18.02
2022-10-28T04:48:15.291Z,18.01
2022-10-28T04:50:42.517Z,17.98
2022-10-28T04:53:09.005Z,17.92
2022-10-28T04:55:35.390Z,18.04
2022-10-28T04:58:02.043Z,18.13
2022-10-28T05:00:29.839Z,18.22
2022-10-28T05:02:57.165Z,18.20
2022-10-28T05:05:23.920Z,18.17
2022-10-28T05:07:50.402Z,18.17
2022-10-28T05:10:18.351Z,18.13
2022-10-28T05:12:45.858Z,18.15
2022-10-28T05:15:13.536Z,18.13
2022-10-28T05:17:41.229Z,18.06
2022-10-28T05:20:08.526Z,18.10
2022-10-28T05:22:34.924Z,18.10
2022-10-28T05:25:01.618Z,18.04
2022-10-28T05:27:28.066Z,17.99
2022-10-28T05:29:54.506Z,17.89
2022-10-28T05:32:21.025Z,17.89
2022-10-28T05:34:47.953Z,17.92
2022-10-28T05:37:14.515Z,17.79
2022-10-28T05:39:40.944Z,17.71
2022-10-28T05:42:07.355Z,17.69
2022-10-28T05:44:33.820Z,17.75
2022-10-28T05:47:01.775Z,17.71
2022-10-28T05:49:28.166Z,17.64
2022-10-28T05:51:54.692Z,17.67
2022-10-28T05:54:21.360Z,17.61
2022-10-28T05:56:49.113Z,17.59
2022-10-28T05:59:15.653Z,17.59
2022-10-28T06:01:43.196Z,17.46
2022-10-28T06:04:09.992Z,17.53
2022-10-28T06:06:36.438Z,17.53
2022-10-28T06:09:03.123Z,17.59
2022-10-28T06:11:28.048Z,17.65
2022-10-28T06:13:54.518Z,17.61
2022-10-28T06:16:20.978Z,17.64
2022-10-28T06:18:47.359Z,17.61
2022-10-28T06:21:13.976Z,17.55
2022-10-28T06:23:40.655Z,17.50
2022-10-28T06:26:08.389Z,17.59
2022-10-28T06:28:36.184Z,17.57
2022-10-28T06:32:34.470Z,17.55
2022-10-28T06:35:00.959Z,17.53
2022-10-28T06:37:27.482Z,17.40
2022-10-28T06:39:54.694Z,17.43
2022-10-28T06:42:21.191Z,17.47
2022-10-28T06:44:49.191Z,17.46
2022-10-28T06:47:17.403Z,17.51
2022-10-28T06:49:43.761Z,17.57
2022-10-28T06:52:10.147Z,17.61
2022-10-28T06:54:36.517Z,17.61
2022-10-28T06:57:02.982Z,17.65
2022-10-28T06:59:29.454Z,17.67
2022-10-28T07:01:56.075Z,17.72
2022-10-28T07:04:22.481Z,17.72
2022-10-28T07:06:51.272Z,17.75
2022-10-28T07:09:18.594Z,17.78
2022-10-28T07:11:52.312Z,17.74
2022-10-28T07:14:21.586Z,17.78
2022-10-28T07:16:48.007Z,17.86
2022-10-28T07:19:17.002Z,18.01
2022-10-28T07:21:44.682Z,18.08
2022-10-28T07:24:12.077Z,18.25
2022-10-28T07:26:38.592Z,18.32
2022-10-28T07:29:05.111Z,18.40
2022-10-28T07:31:32.653Z,18.64
2022-10-28T07:34:01.064Z,18.61
2022-10-28T07:36:27.729Z,18.88
2022-10-28T07:38:54.849Z,19.19
2022-10-28T07:41:22.157Z,19.52
2022-10-28T07:43:48.915Z,19.71
2022-10-28T07:46:16.792Z,19.81
2022-10-28T07:48:43.376Z,19.94
2022-10-28T07:51:12.177Z,20.01
2022-10-28T07:53:38.920Z,19.98
2022-10-28T07:56:09.887Z,19.87
2022-10-28T07:58:37.058Z,20.07
2022-10-28T08:01:08.491Z,20.05
2022-10-28T08:03:38.993Z,19.91
2022-10-28T08:06:17.317Z,19.81
2022-10-28T08:08:45.520Z,19.88
2022-10-28T08:11:14.042Z,19.94
2022-10-28T08:13:40.548Z,20.26
2022-10-28T08:16:08.123Z,20.28
2022-10-28T08:18:35.745Z,20.51
2022-10-28T08:21:03.804Z,20.61
2022-10-28T08:23:30.563Z,21.07
2022-10-28T08:25:57.273Z,21.06
2022-10-28T08:28:24.103Z,20.87
2022-10-28T08:31:04.063Z,20.62
2022-10-28T08:33:36.240Z,20.46
2022-10-28T08:36:02.645Z,20.68
2022-10-28T08:38:29.106Z,20.92
2022-10-28T08:41:08.090Z,20.48
2022-10-28T08:44:08.188Z,20.36
2022-10-28T08:46:50.052Z,20.41
2022-10-28T08:49:19.783Z,20.36
2022-10-28T08:51:55.107Z,20.32
2022-10-28T08:54:30.294Z,20.29
2022-10-28T08:56:59.749Z,20.35
2022-10-28T08:59:32.242Z,20.63
2022-10-28T09:02:14.809Z,20.71
2022-10-28T09:04:46.763Z,21.58
2022-10-28T09:07:18.790Z,21.96
2022-10-28T09:09:46.743Z,22.35
2022-10-28T09:12:19.289Z,22.59
2022-10-28T09:14:45.647Z,22.90
2022-10-28T09:17:20.385Z,22.90
2022-10-28T09:20:02.321Z,23.31
2022-10-28T09:22:37.046Z,23.83
2022-10-28T09:25:15.912Z,23.87
2022-10-28T09:27:56.973Z,23.61
2022-10-28T09:30:49.153Z,23.94
2022-10-28T09:33:35.631Z,23.31
2022-10-28T09:36:06.531Z,23.31
2022-10-28T09:38:35.149Z,23.15
2022-10-28T09:41:10.287Z,23.01
2022-10-28T09:43:43.253Z,23.61
2022-10-28T09:46:15.211Z,23.16
2022-10-28T09:48:48.316Z,23.41
2022-10-28T09:51:52.678Z,22.71
2022-10-28T09:54:26.454Z,22.57
2022-10-28T09:56:53.180Z,22.87
2022-10-28T09:59:21.703Z,22.99
2022-10-28T10:01:48.275Z,23.24
2022-10-28T10:04:26.372Z,23.16
2022-10-28T10:06:58.098Z,23.63
2022-10-28T10:09:30.636Z,23.34
2022-10-28T10:12:05.253Z,23.69
2022-10-28T10:14:42.113Z,23.24
2022-10-28T10:17:32.516Z,23.02
2022-10-28T10:20:21.687Z,23.22
2022-10-28T10:22:49.665Z,22.88
2022-10-28T10:25:19.131Z,23.05
2022-10-28T10:28:03.269Z,22.85
2022-10-28T10:30:40.327Z,22.91
2022-10-28T10:33:21.373Z,22.83
2022-10-28T10:36:00.117Z,22.78
2022-10-28T10:38:31.292Z,22.99
2022-10-28T10:41:00.710Z,23.43
2022-10-28T10:43:27.038Z,23.53
2022-10-28T10:46:00.253Z,23.31
2022-10-28T10:48:28.748Z,23.56
2022-10-28T10:50:56.091Z,23.45
2022-10-28T10:53:35.337Z,23.62
2022-10-28T10:56:08.372Z,24.10
2022-10-28T10:58:39.917Z,23.93
2022-10-28T11:01:09.616Z,23.73
2022-10-28T11:03:48.248Z,23.58
2022-10-28T11:06:24.878Z,23.39
2022-10-28T11:08:59.851Z,23.61
2022-10-28T11:11:40.587Z,23.87
2022-10-28T11:14:09.736Z,25.03
2022-10-28T11:16:54.519Z,24.47
2022-10-28T11:19:28.153Z,25.18
2022-10-28T11:22:15.128Z,25.46
2022-10-28T11:25:05.598Z,25.66
2022-10-28T11:27:49.988Z,25.16
2022-10-28T11:30:30.177Z,25.57
2022-10-28T11:33:28.919Z,25.54
2022-10-28T11:36:25.549Z,25.22
2022-10-28T11:39:17.173Z,25.71
2022-10-28T11:42:07.189Z,25.43
2022-10-28T11:44:47.665Z,26.05
2022-10-28T11:47:36.673Z,26.01
2022-10-28T11:50:13.563Z,26.31
2022-10-28T11:52:45.163Z,25.85
2022-10-28T11:55:36.700Z,25.39
2022-10-28T11:58:18.553Z,25.50
2022-10-28T12:00:54.698Z,26.15
2022-10-28T12:03:33.606Z,26.53
2022-10-28T12:06:19.460Z,26.26
2022-10-28T12:09:20.205Z,26.08
2022-10-28T12:12:01.775Z,25.80
2022-10-28T12:14:52.320Z,26.04
2022-10-28T12:17:46.270Z,26.24
2022-10-28T12:20:36.186Z,26.39
2022-10-28T12:23:11.619Z,26.43
2022-10-28T12:25:42.341Z,26.21
2022-10-28T12:28:42.520Z,26.12
2022-10-28T12:31:28.667Z,26.12
2022-10-28T12:34:01.017Z,26.22
2022-10-28T12:36:50.821Z,26.43
2022-10-28T12:39:33.832Z,26.11
2022-10-28T12:42:12.554Z,26.24
2022-10-28T12:44:39.796Z,25.95
2022-10-28T12:47:16.473Z,25.88
2022-10-28T12:50:07.927Z,25.92
2022-10-28T12:52:55.813Z,26.24
2022-10-28T12:55:40.973Z,26.05
2022-10-28T12:58:19.490Z,26.15
2022-10-28T13:00:51.180Z,26.04
2022-10-28T13:03:18.766Z,25.68
2022-10-28T13:05:57.913Z,25.85
2022-10-28T13:08:36.593Z,25.64
2022-10-28T13:11:21.282Z,25.23
2022-10-28T13:13:47.722Z,25.27
2022-10-28T13:16:57.927Z,25.30
2022-10-28T13:19:43.173Z,25.10
2022-10-28T13:22:18.734Z,25.02
2022-10-28T13:24:51.225Z,25.13
2022-10-28T13:27:19.571Z,25.12
2022-10-28T13:29:51.481Z,25.46
2022-10-28T13:32:41.522Z,25.49
2022-10-28T13:35:22.457Z,25.58
2022-10-28T13:37:51.607Z,25.70
2022-10-28T13:40:31.803Z,25.80
2022-10-28T13:43:00.658Z,25.66
2022-10-28T13:45:52.152Z,25.60
2022-10-28T13:48:45.010Z,25.51
2022-10-28T13:51:11.397Z,25.49
2022-10-28T13:53:41.919Z,25.41
2022-10-28T13:56:23.090Z,25.31
2022-10-28T13:59:10.882Z,25.37
2022-10-28T14:01:39.020Z,25.27
2022-10-28T14:04:06.300Z,25.19
2022-10-28T14:06:35.221Z,25.12
2022-10-28T14:09:02.068Z,24.95
2022-10-28T14:11:32.648Z,24.86
2022-10-28T14:14:04.081Z,24.82
2022-10-28T14:16:36.924Z,24.72
2022-10-28T14:19:19.282Z,24.64
2022-10-28T14:22:07.507Z,24.57
2022-10-28T14:24:37.546Z,24.48
2022-10-28T14:27:03.853Z,24.44
2022-10-28T14:29:30.485Z,24.41
2022-10-28T14:31:57.000Z,24.34
2022-10-28T14:34:34.098Z,24.28
2022-10-28T14:37:27.484Z,24.21
2022-10-28T14:40:08.310Z,24.13
2022-10-28T14:43:13.902Z,24.14
2022-10-28T14:45:59.549Z,24.13
2022-10-28T14:48:53.559Z,24.10
2022-10-28T14:51:24.563Z,24.03
2022-10-28T14:53:56.410Z,23.98
2022-10-28T14:56:26.693Z,23.97
2022-10-28T14:58:57.330Z,23.89
2022-10-28T15:01:27.052Z,23.82
2022-10-28T15:03:57.898Z,23.70
2022-10-28T15:06:31.824Z,23.59
2022-10-28T15:09:06.081Z,23.61
2022-10-28T15:11:33.799Z,23.52
2022-10-28T15:21:15.244Z,23.36
2022-10-28T15:23:41.632Z,23.31
2022-10-28T15:26:16.488Z,23.32
2022-10-28T15:28:43.216Z,23.19
2022-10-28T15:31:10.050Z,23.01
2022-10-28T15:33:41.007Z,23.11
2022-10-28T15:36:07.504Z,23.15
2022-10-28T15:38:39.162Z,22.97
2022-10-28T15:41:38.357Z,23.18
2022-10-28T15:44:05.165Z,22.98
2022-10-28T15:46:33.346Z,22.78
2022-10-28T15:49:01.996Z,22.70
2022-10-28T15:51:28.832Z,22.64
2022-10-28T15:54:10.666Z,22.80
2022-10-28T15:56:57.139Z,22.71
2022-10-28T15:59:25.384Z,22.68
2022-10-28T16:01:55.809Z,22.84
2022-10-28T16:04:22.538Z,22.68
2022-10-28T16:06:54.832Z,22.44
2022-10-28T16:09:32.045Z,22.46
2022-10-28T16:12:02.613Z,22.20
2022-10-28T16:14:41.559Z,22.85
2022-10-28T16:17:15.304Z,22.83
2022-10-28T16:19:51.804Z,22.91
2022-10-28T16:22:19.246Z,22.67
2022-10-28T16:24:46.261Z,22.66
2022-10-28T16:27:25.576Z,22.40
2022-10-28T16:29:52.994Z,22.18
2022-10-28T16:32:36.760Z,22.29
2022-10-28T16:35:04.856Z,21.89
2022-10-28T16:37:34.500Z,21.67
2022-10-28T16:40:01.110Z,21.48
2022-10-28T16:42:27.582Z,21.35
2022-10-28T16:44:54.045Z,21.62
2022-10-28T16:47:22.147Z,21.44
2022-10-28T16:49:52.615Z,21.27
2022-10-28T16:52:29.182Z,21.37
2022-10-28T16:54:56.294Z,21.31
2022-10-28T16:59:50.594Z,20.92
2022-10-28T17:02:19.964Z,20.90
2022-10-28T17:04:46.483Z,20.94
2022-10-28T17:07:16.190Z,20.96
2022-10-28T17:09:43.207Z,20.90
2022-10-28T17:12:19.213Z,20.89
2022-10-28T17:14:45.963Z,20.75
2022-10-28T17:17:13.348Z,20.76
2022-10-28T17:19:40.584Z,20.59
2022-10-28T17:22:10.665Z,20.59
2022-10-28T17:24:37.389Z,20.45
2022-10-28T17:27:07.389Z,20.25
2022-10-28T17:29:34.206Z,20.38
2022-10-28T17:32:00.852Z,20.00
2022-10-28T17:34:27.279Z,20.20
2022-10-28T17:36:53.746Z,19.97
2022-10-28T17:39:25.627Z,19.90
2022-10-28T17:41:52.526Z,19.85
2022-10-28T17:44:18.937Z,19.63
2022-10-28T17:46:47.623Z,19.71
2022-10-28T17:49:15.469Z,19.73
2022-10-28T17:51:42.358Z,19.56
2022-10-28T17:57:37.492Z,19.46
2022-10-28T18:00:04.389Z,19.77
2022-10-28T18:02:30.881Z,19.77
2022-10-28T18:04:57.485Z,19.76
2022-10-28T18:07:24.089Z,19.83
2022-10-28T18:09:50.457Z,19.87
2022-10-28T18:12:16.899Z,19.90
2022-10-28T18:14:43.274Z,19.73
2022-10-28T18:17:13.159Z,19.62
2022-10-28T18:19:39.699Z,19.64
2022-10-28T18:22:06.185Z,19.64
2022-10-28T18:24:32.608Z,19.47
2022-10-28T18:26:58.970Z,19.49
2022-10-28T18:29:25.794Z,19.63
2022-10-28T18:31:52.421Z,19.67
2022-10-28T18:34:20.013Z,19.63
2022-10-28T18:36:46.660Z,19.34
2022-10-28T18:39:13.027Z,19.23
2022-10-28T18:41:44.504Z,19.06
2022-10-28T18:44:14.110Z,19.06
2022-10-28T18:46:40.719Z,18.99
2022-10-28T18:49:07.478Z,18.78
2022-10-28T18:51:34.457Z,18.78
2022-10-28T18:54:01.115Z,18.91
2022-10-28T18:56:33.950Z,18.74
2022-10-28T18:59:02.897Z,18.78
2022-10-28T19:01:31.051Z,18.84
2022-10-28T19:04:00.007Z,18.56
2022-10-28T19:06:32.480Z,18.53
2022-10-28T19:09:04.196Z,18.44
2022-10-28T19:11:31.649Z,18.54
2022-10-28T19:14:00.857Z,18.63
2022-10-28T19:16:28.451Z,18.75
2022-10-28T19:18:58.900Z,18.97
2022-10-28T19:21:26.591Z,18.98
2022-10-28T19:23:53.224Z,19.06
2022-10-28T19:26:20.504Z,18.81
2022-10-28T19:28:48.480Z,19.09
2022-10-28T19:31:18.255Z,18.89
2022-10-28T19:33:45.280Z,18.53
2022-10-28T19:36:18.490Z,18.34
2022-10-28T19:38:46.182Z,18.30
2022-10-28T19:41:24.850Z,18.27
2022-10-28T19:43:58.207Z,18.33
2022-10-28T19:46:29.590Z,18.43
2022-10-28T19:48:59.028Z,18.66
2022-10-28T19:51:30.498Z,18.57
2022-10-28T19:53:59.540Z,18.67
2022-10-28T19:56:27.421Z,18.84
2022-10-28T19:58:56.100Z,18.67
2022-10-28T20:01:24.801Z,18.61
2022-10-28T20:03:52.364Z,18.50
2022-10-28T20:06:21.256Z,18.36
2022-10-28T20:08:49.320Z,18.34
2022-10-28T20:11:21.404Z,18.33
2022-10-28T20:13:56.875Z,18.30
2022-10-28T20:16:24.971Z,18.39
2022-10-28T20:18:51.478Z,18.30
2022-10-28T20:21:20.316Z,18.32
2022-10-28T20:23:55.237Z,18.30
2022-10-28T20:26:26.725Z,18.15
2022-10-28T20:28:53.493Z,18.30
2022-10-28T20:31:22.433Z,18.25
2022-10-28T20:33:54.084Z,18.22
2022-10-28T20:36:24.969Z,18.20
2022-10-28T20:39:01.758Z,18.20
2022-10-28T20:41:32.106Z,18.26
2022-10-28T20:43:59.062Z,18.29
2022-10-28T20:46:26.139Z,18.12
2022-10-28T20:48:56.703Z,18.23
2022-10-28T20:51:25.629Z,18.27
2022-10-28T20:53:52.296Z,18.23
2022-10-28T20:56:21.320Z,18.37
2022-10-28T20:58:48.052Z,18.43
2022-10-28T21:01:16.416Z,18.36
2022-10-28T21:03:44.310Z,18.32
2022-10-28T21:06:11.723Z,18.48
2022-10-28T21:08:38.464Z,18.37
2022-10-28T21:11:07.113Z,18.29
2022-10-28T21:13:33.861Z,18.40
2022-10-28T21:16:08.032Z,18.41
2022-10-28T21:18:36.495Z,18.25
2022-10-28T21:21:03.616Z,18.32
2022-10-28T21:23:30.191Z,18.17
2022-10-28T21:25:59.740Z,18.10
2022-10-28T21:28:28.626Z,18.05
2022-10-28T21:31:01.843Z,18.01
2022-10-28T21:33:28.608Z,17.85
2022-10-28T21:35:59.677Z,17.86
2022-10-28T21:38:27.144Z,17.78
2022-10-28T21:40:59.781Z,17.67
2022-10-28T21:43:28.109Z,17.85
2022-10-28T21:45:54.528Z,17.72
2022-10-28T21:48:20.908Z,17.68
2022-10-28T21:50:54.401Z,17.62
2022-10-28T21:53:21.666Z,17.88
2022-10-28T21:55:50.920Z,17.46
2022-10-28T21:58:18.028Z,17.40
2022-10-28T22:00:45.242Z,17.30
2022-10-28T22:03:13.047Z,17.36
2022-10-28T22:05:39.533Z,17.43
2022-10-28T22:08:06.254Z,17.40
2022-10-28T22:10:32.710Z,17.20
2022-10-28T22:12:59.107Z,17.29
2022-10-28T22:15:25.498Z,17.34
2022-10-28T22:17:51.887Z,17.33
2022-10-28T22:20:18.477Z,17.33
2022-10-28T22:22:44.995Z,17.48
2022-10-28T22:25:11.369Z,17.44
2022-10-28T22:27:37.948Z,17.44
2022-10-28T22:30:04.915Z,17.53
2022-10-28T22:32:31.282Z,17.43
2022-10-28T22:34:57.676Z,17.27
2022-10-28T22:37:24.081Z,17.21
2022-10-28T22:39:50.517Z,17.31
2022-10-28T22:42:16.900Z,17.29
2022-10-28T22:44:43.307Z,17.24
2022-10-28T22:47:09.696Z,17.50
2022-10-28T22:49:36.337Z,17.41
2022-10-28T22:52:02.723Z,17.33
2022-10-28T22:54:29.127Z,17.21
2022-10-28T22:56:55.549Z,17.34
2022-10-28T22:59:21.977Z,17.27
2022-10-28T23:01:48.512Z,17.07
2022-10-28T23:04:15.194Z,17.07
2022-10-28T23:06:41.609Z,16.99
2022-10-28T23:09:08.072Z,17.16
2022-10-28T23:11:34.515Z,17.13
2022-10-28T23:14:00.891Z,17.07
2022-10-28T23:16:27.501Z,17.16
2022-10-28T23:18:54.015Z,17.21
2022-10-28T23:21:25.442Z,17.23
2022-10-28T23:23:54.082Z,17.33
2022-10-28T23:26:21.237Z,17.53
2022-10-28T23:28:52.590Z,17.38
2022-10-28T23:31:19.601Z,17.46
2022-10-28T23:33:46.820Z,17.37
2022-10-28T23:36:14.548Z,17.47
2022-10-28T23:38:41.355Z,17.44
2022-10-28T23:41:10.300Z,17.38
2022-10-28T23:43:37.710Z,17.33
2022-10-28T23:46:04.763Z,17.40
2022-10-28T23:48:31.750Z,17.26
2022-10-28T23:50:58.159Z,17.34
2022-10-28T23:53:24.879Z,17.38
2022-10-28T23:55:52.203Z,17.67
